createdAt,value
2022-12-17T00:02:23.380Z,43.08
2022-12-17T00:05:08.611Z,45.20
2022-12-17T00:07:54.989Z,42.95
2022-12-17T00:10:41.163Z,42.38
2022-12-17T00:13:37.123Z,43.50
2022-12-17T00:16:22.852Z,41.25
2022-12-17T00:19:08.152Z,43.05
2022-12-17T00:21:53.234Z,41.65
2022-12-17T00:24:41.362Z,46.45
2022-12-17T00:27:26.518Z,43.35
2022-12-17T00:30:11.654Z,41.53
2022-12-17T00:32:56.949Z,42.15
2022-12-17T00:35:42.196Z,43.60
2022-12-17T00:38:36.068Z,46.38
2022-12-17T00:41:21.183Z,47.90
2022-12-17T00:44:06.471Z,46.03
2022-12-17T00:46:51.700Z,48.28
2022-12-17T00:49:37.350Z,46.40
2022-12-17T00:52:22.534Z,45.72
2022-12-17T00:55:07.706Z,44.40
2022-12-17T00:57:52.909Z,46.20
2022-12-17T01:00:38.185Z,48.35
2022-12-17T01:03:28.906Z,45.90
2022-12-17T01:06:14.087Z,45.20
2022-12-17T01:08:59.081Z,45.70
2022-12-17T01:11:44.378Z,44.58
2022-12-17T01:14:29.515Z,43.35
2022-12-17T01:17:14.662Z,43.38
2022-12-17T01:19:59.675Z,44.53
2022-12-17T01:22:44.762Z,45.17
2022-12-17T01:25:30.022Z,42.75
2022-12-17T01:28:16.713Z,44.15
2022-12-17T01:31:01.932Z,44.00
2022-12-17T01:33:47.280Z,42.47
2022-12-17T01:36:32.614Z,44.53
2022-12-17T01:39:17.776Z,42.65
2022-12-17T01:42:02.561Z,39.63
2022-12-17T01:45:09.161Z,43.80
2022-12-17T01:48:18.090Z,40.25
2022-12-17T01:51:08.137Z,40.28
2022-12-17T01:53:56.498Z,43.53
2022-12-17T01:56:44.207Z,41.05
2022-12-17T01:59:31.811Z,41.13
2022-12-17T02:02:17.693Z,40.60
2022-12-17T02:05:03.025Z,41.10
2022-12-17T02:08:10.619Z,43.10
2022-12-17T02:11:14.441Z,40.47
2022-12-17T02:14:01.269Z,40.53
2022-12-17T02:16:56.942Z,43.03
2022-12-17T02:20:06.643Z,40.85
2022-12-17T02:23:12.321Z,43.22
2022-12-17T02:26:06.315Z,44.72
2022-12-17T02:28:53.701Z,43.90
2022-12-17T02:31:39.672Z,44.20
2022-12-17T02:34:25.518Z,43.63
2022-12-17T02:37:10.633Z,45.97
2022-12-17T02:39:56.688Z,46.50
2022-12-17T02:42:43.214Z,46.13
2022-12-17T02:45:43.817Z,48.38
2022-12-17T02:48:30.767Z,45.95
2022-12-17T02:51:16.876Z,47.67
2022-12-17T02:54:04.608Z,46.70
2022-12-17T02:56:50.874Z,48.88
2022-12-17T02:59:36.228Z,46.70
2022-12-17T03:02:28.846Z,43.55
2022-12-17T03:05:42.666Z,42.38
2022-12-17T03:08:19.033Z,44.90
2022-12-17T03:11:04.141Z,43.17
2022-12-17T03:13:49.441Z,45.80
2022-12-17T03:16:37.651Z,46.22
2022-12-17T03:19:23.177Z,44.55
2022-12-17T03:22:08.467Z,45.72
2022-12-17T03:24:53.562Z,44.13
2022-12-17T03:27:38.679Z,42.05
2022-12-17T03:30:24.164Z,42.10
2022-12-17T03:33:09.365Z,42.33
2022-12-17T03:35:54.786Z,42.53
2022-12-17T03:38:39.883Z,43.78
2022-12-17T03:41:25.337Z,43.08
2022-12-17T03:44:10.448Z,44.33
2022-12-17T03:46:55.690Z,40.70
2022-12-17T03:49:40.845Z,43.63
2022-12-17T03:52:25.929Z,43.75
2022-12-17T03:55:11.109Z,42.83
2022-12-17T03:57:55.907Z,44.10
2022-12-17T04:00:41.026Z,42.58
2022-12-17T04:03:26.234Z,42.72
2022-12-17T04:06:13.090Z,42.28
2022-12-17T04:08:58.096Z,41.03
2022-12-17T04:11:43.244Z,42.85
2022-12-17T04:14:28.523Z,44.47
2022-12-17T04:17:13.820Z,42.30
2022-12-17T04:19:58.948Z,43.85
2022-12-17T04:22:43.768Z,41.03
2022-12-17T04:25:28.869Z,39.03
2022-12-17T04:28:14.127Z,43.92
2022-12-17T04:30:59.199Z,42.75
2022-12-17T04:33:44.545Z,44.00
2022-12-17T04:36:29.436Z,42.70
2022-12-17T04:39:14.625Z,42.65
2022-12-17T04:41:59.764Z,42.80
2022-12-17T04:44:44.973Z,41.03
2022-12-17T04:47:30.258Z,42.70
2022-12-17T04:50:15.374Z,42.45
2022-12-17T04:53:00.690Z,40.25
2022-12-17T04:55:45.717Z,43.25
2022-12-17T04:58:30.876Z,42.88
2022-12-17T05:01:16.082Z,41.35
2022-12-17T05:04:01.405Z,42.33
2022-12-17T05:06:46.661Z,43.47
2022-12-17T05:09:31.658Z,45.67
2022-12-17T05:12:18.056Z,43.28
2022-12-17T05:15:03.119Z,41.72
2022-12-17T05:17:48.434Z,42.45
2022-12-17T05:20:36.268Z,38.90
2022-12-17T05:23:25.502Z,39.65
2022-12-17T05:26:24.446Z,39.95
2022-12-17T05:29:15.482Z,42.40
2022-12-17T05:32:01.289Z,40.38
2022-12-17T05:34:46.427Z,39.95
2022-12-17T05:37:31.641Z,40.03
2022-12-17T05:40:16.566Z,42.42
2022-12-17T05:43:01.802Z,43.03
2022-12-17T05:45:46.738Z,44.45
2022-12-17T05:48:31.760Z,43.00
2022-12-17T05:51:16.912Z,44.40
2022-12-17T05:54:06.644Z,44.70
2022-12-17T05:56:51.794Z,42.30
2022-12-17T05:59:36.924Z,41.97
2022-12-17T06:02:29.643Z,40.70
2022-12-17T06:05:14.819Z,40.60
2022-12-17T06:08:00.162Z,43.78
2022-12-17T06:10:45.285Z,42.53
2022-12-17T06:13:30.531Z,42.22
2022-12-17T06:16:15.691Z,44.00
2022-12-17T06:19:00.810Z,44.35
2022-12-17T06:21:46.165Z,43.33
2022-12-17T06:24:31.335Z,44.78
2022-12-17T06:27:16.704Z,43.72
2022-12-17T06:30:01.898Z,42.80
2022-12-17T06:32:47.119Z,46.25
2022-12-17T06:35:32.039Z,44.63
2022-12-17T06:38:22.311Z,41.17
2022-12-17T06:41:08.077Z,40.10
2022-12-17T06:43:53.254Z,42.90
2022-12-17T06:46:38.408Z,40.50
2022-12-17T06:49:23.803Z,40.58
2022-12-17T06:52:08.914Z,41.95
2022-12-17T06:54:54.099Z,43.28
2022-12-17T06:57:41.263Z,43.00
2022-12-17T07:00:28.198Z,43.65
2022-12-17T07:03:17.099Z,44.42
2022-12-17T07:06:02.317Z,43.00
2022-12-17T07:08:47.528Z,44.72
2022-12-17T07:11:32.933Z,46.15
2022-12-17T07:14:18.072Z,42.53
2022-12-17T07:17:03.271Z,40.67
2022-12-17T07:19:48.455Z,41.33
2022-12-17T07:22:33.550Z,40.42
2022-12-17T07:25:18.806Z,41.35
2022-12-17T07:28:12.028Z,40.63
2022-12-17T07:30:57.073Z,39.60
2022-12-17T07:33:42.342Z,37.92
2022-12-17T07:36:27.389Z,39.92
2022-12-17T07:39:12.589Z,39.72
2022-12-17T07:41:57.688Z,40.00
2022-12-17T07:44:42.854Z,41.33
2022-12-17T07:47:28.055Z,37.70
2022-12-17T07:50:13.238Z,38.90
2022-12-17T07:52:58.497Z,37.90
2022-12-17T07:55:43.687Z,39.92
2022-12-17T07:58:29.856Z,40.70
2022-12-17T08:01:18.793Z,39.60
2022-12-17T08:04:03.897Z,40.97
2022-12-17T08:06:49.807Z,39.10
2022-12-17T08:09:34.960Z,41.58
2022-12-17T08:12:20.114Z,42.15
2022-12-17T08:15:05.260Z,39.33
2022-12-17T08:17:50.305Z,41.15
2022-12-17T08:20:35.717Z,40.38
2022-12-17T08:23:24.461Z,40.03
2022-12-17T08:26:09.529Z,39.65
2022-12-17T08:28:54.737Z,39.30
2022-12-17T08:31:41.933Z,39.83
2022-12-17T08:34:27.156Z,40.33
2022-12-17T08:37:12.414Z,39.42
2022-12-17T08:39:57.615Z,39.95
2022-12-17T08:42:43.319Z,49.05
2022-12-17T08:45:28.580Z,37.58
2022-12-17T08:48:21.162Z,40.50
2022-12-17T08:51:06.038Z,38.40
2022-12-17T08:53:51.359Z,38.97
2022-12-17T08:56:36.531Z,39.28
2022-12-17T08:59:21.738Z,39.80
2022-12-17T09:02:07.990Z,39.60
2022-12-17T09:04:53.190Z,40.70
2022-12-17T09:07:38.302Z,40.67
2022-12-17T09:10:23.870Z,41.72
2022-12-17T09:13:09.023Z,45.05
2022-12-17T09:15:54.090Z,39.30
2022-12-17T09:18:39.961Z,40.92
2022-12-17T09:21:26.143Z,43.28
2022-12-17T09:24:11.248Z,44.03
2022-12-17T09:26:56.573Z,42.67
2022-12-17T09:29:41.683Z,41.25
2022-12-17T09:32:26.972Z,53.50
2022-12-17T09:35:11.892Z,43.38
2022-12-17T09:38:01.669Z,42.80
2022-12-17T09:40:48.676Z,43.10
2022-12-17T09:43:58.930Z,41.50
2022-12-17T09:47:05.364Z,41.20
2022-12-17T09:49:51.252Z,41.95
2022-12-17T09:52:50.158Z,41.80
2022-12-17T09:55:44.991Z,39.05
2022-12-17T09:58:49.053Z,41.55
2022-12-17T10:01:36.920Z,41.42
2022-12-17T10:04:31.630Z,39.50
2022-12-17T10:07:16.987Z,40.47
2022-12-17T10:10:10.635Z,40.88
2022-12-17T10:12:55.466Z,40.78
2022-12-17T10:15:40.685Z,40.67
2022-12-17T10:18:28.534Z,42.55
2022-12-17T10:21:17.038Z,40.53
2022-12-17T10:24:02.224Z,41.55
2022-12-17T10:26:50.591Z,41.00
2022-12-17T10:29:48.233Z,42.20
2022-12-17T10:32:33.489Z,40.22
2022-12-17T10:35:33.195Z,41.13
2022-12-17T10:38:20.011Z,40.47
2022-12-17T10:41:04.968Z,40.45
2022-12-17T10:43:52.107Z,40.97
2022-12-17T10:46:48.000Z,40.35
2022-12-17T10:49:35.291Z,39.63
2022-12-17T10:52:46.397Z,40.80
2022-12-17T10:55:41.103Z,39.10
2022-12-17T10:58:34.997Z,40.03
2022-12-17T11:01:21.774Z,39.60
2022-12-17T11:04:13.608Z,73.60
2022-12-17T11:07:04.654Z,40.15
2022-12-17T11:09:50.913Z,38.35
2022-12-17T11:12:38.620Z,40.22
2022-12-17T11:15:36.067Z,42.40
2022-12-17T11:18:22.897Z,40.15
2022-12-17T11:21:16.122Z,42.70
2022-12-17T11:24:02.652Z,38.35
2022-12-17T11:26:51.321Z,40.63
2022-12-17T11:29:36.602Z,39.47
2022-12-17T11:32:33.170Z,39.28
2022-12-17T11:35:39.388Z,39.35
2022-12-17T11:38:51.190Z,40.38
2022-12-17T11:42:14.218Z,38.60
2022-12-17T11:45:09.085Z,39.42
2022-12-17T11:48:17.681Z,37.78
2022-12-17T11:51:41.743Z,40.03
2022-12-17T11:55:02.629Z,39.33
2022-12-17T11:58:08.006Z,39.42
2022-12-17T12:01:09.892Z,34.60
2022-12-17T12:04:12.219Z,36.53
2022-12-17T12:07:08.228Z,33.25
2022-12-17T12:10:08.668Z,33.47
2022-12-17T12:13:11.734Z,34.20
2022-12-17T12:16:23.883Z,31.77
2022-12-17T12:19:18.982Z,36.28
2022-12-17T12:22:17.881Z,37.72
2022-12-17T12:25:34.241Z,35.35
2022-12-17T12:28:52.984Z,34.88
2022-12-17T12:31:56.068Z,33.55
2022-12-17T12:34:47.882Z,33.53
2022-12-17T12:37:36.053Z,36.15
2022-12-17T12:40:30.422Z,33.05
2022-12-17T12:43:23.019Z,35.30
2022-12-17T12:46:08.209Z,33.70
2022-12-17T12:49:21.129Z,35.95
2022-12-17T12:52:14.632Z,34.22
2022-12-17T12:55:06.028Z,47.45
2022-12-17T12:57:55.656Z,40.47
2022-12-17T13:00:56.904Z,35.05
2022-12-17T13:03:46.773Z,33.38
2022-12-17T13:06:16.027Z,38.75
2022-12-17T13:08:42.563Z,40.63
2022-12-17T13:11:24.974Z,31.35
2022-12-17T13:13:57.679Z,30.95
2022-12-17T13:16:32.407Z,31.20
2022-12-17T13:19:22.862Z,32.90
2022-12-17T13:21:49.486Z,30.17
2022-12-17T13:24:25.237Z,31.65
2022-12-17T13:26:52.369Z,33.00
2022-12-17T13:29:27.488Z,32.30
2022-12-17T13:32:08.828Z,32.55
2022-12-17T13:34:51.970Z,35.88
2022-12-17T13:37:39.745Z,36.40
2022-12-17T13:40:21.280Z,34.33
2022-12-17T13:42:48.731Z,34.13
2022-12-17T13:45:22.215Z,36.00
2022-12-17T13:47:56.230Z,35.53
2022-12-17T13:50:35.570Z,35.03
2022-12-17T13:53:13.093Z,35.33
2022-12-17T13:55:53.251Z,35.45
2022-12-17T13:58:22.165Z,31.83
2022-12-17T14:00:48.769Z,33.17
2022-12-17T14:03:28.432Z,31.10
2022-12-17T14:06:09.186Z,29.92
2022-12-17T14:08:36.067Z,30.23
2022-12-17T14:11:21.490Z,29.67
2022-12-17T14:13:50.130Z,29.63
2022-12-17T14:16:18.016Z,30.70
2022-12-17T14:18:47.593Z,35.05
2022-12-17T14:21:14.211Z,31.38
2022-12-17T14:23:41.206Z,30.17
2022-12-17T14:26:11.688Z,28.25
2022-12-17T14:28:58.491Z,28.85
2022-12-17T14:31:28.822Z,29.83
2022-12-17T14:34:11.607Z,28.35
2022-12-17T14:36:42.699Z,28.65
2022-12-17T14:39:18.756Z,30.10
2022-12-17T14:42:03.950Z,29.50
2022-12-17T14:44:31.197Z,30.70
2022-12-17T14:47:13.186Z,28.45
2022-12-17T14:49:55.251Z,30.58
2022-12-17T14:52:48.781Z,28.75
2022-12-17T14:55:27.488Z,27.58
2022-12-17T14:58:07.887Z,31.58
2022-12-17T15:00:47.064Z,31.58
2022-12-17T15:03:18.922Z,28.73
2022-12-17T15:05:51.221Z,31.02
2022-12-17T15:08:17.862Z,30.45
2022-12-17T15:10:44.392Z,29.30
2022-12-17T15:13:10.966Z,29.85
2022-12-17T15:15:37.476Z,28.98
2022-12-17T15:18:04.091Z,31.42
2022-12-17T15:20:31.411Z,29.48
2022-12-17T15:22:57.946Z,30.45
2022-12-17T15:25:24.530Z,30.70
2022-12-17T15:27:51.160Z,26.95
2022-12-17T15:30:18.080Z,28.30
2022-12-17T15:32:45.417Z,28.48
2022-12-17T15:35:13.300Z,29.38
2022-12-17T15:37:39.948Z,29.33
2022-12-17T15:40:07.529Z,27.35
2022-12-17T15:42:52.586Z,29.40
2022-12-17T15:45:19.458Z,26.67
2022-12-17T15:47:46.036Z,28.92
2022-12-17T15:50:12.594Z,28.83
2022-12-17T15:52:39.183Z,28.55
2022-12-17T15:55:06.256Z,29.60
2022-12-17T15:57:32.949Z,28.83
2022-12-17T15:59:59.502Z,30.67
2022-12-17T16:02:26.281Z,28.75
2022-12-17T16:04:52.943Z,27.63
2022-12-17T16:07:19.595Z,29.67
2022-12-17T16:09:46.165Z,28.90
2022-12-17T16:12:12.746Z,33.58
2022-12-17T16:14:39.304Z,30.98
2022-12-17T16:17:05.836Z,32.70
2022-12-17T16:19:32.336Z,32.65
2022-12-17T16:21:58.941Z,31.58
2022-12-17T16:24:25.545Z,31.75
2022-12-17T16:26:52.116Z,30.10
2022-12-17T16:29:18.656Z,30.42
2022-12-17T16:31:46.216Z,29.90
2022-12-17T16:34:13.394Z,33.00
2022-12-17T16:36:39.979Z,30.95
2022-12-17T16:39:06.584Z,34.40
2022-12-17T16:41:33.521Z,32.28
2022-12-17T16:44:01.016Z,33.15
2022-12-17T16:46:32.943Z,33.15
2022-12-17T16:49:04.814Z,32.83
2022-12-17T16:51:31.388Z,32.47
2022-12-17T16:53:58.786Z,32.13
2022-12-17T16:56:27.712Z,31.65
2022-12-17T16:58:55.089Z,30.95
2022-12-17T17:01:23.469Z,32.00
2022-12-17T17:03:50.291Z,32.95
2022-12-17T17:06:17.876Z,32.17
2022-12-17T17:08:44.897Z,31.92
2022-12-17T17:11:14.054Z,33.88
2022-12-17T17:13:41.255Z,30.65
2022-12-17T17:16:09.845Z,31.98
2022-12-17T17:18:37.326Z,33.60
2022-12-17T17:21:21.519Z,31.23
2022-12-17T17:26:15.873Z,30.65
2022-12-17T17:28:42.766Z,31.13
2022-12-17T17:31:12.385Z,34.83
2022-12-17T17:33:43.122Z,34.42
2022-12-17T17:36:11.796Z,36.00
2022-12-17T17:38:40.262Z,35.08
2022-12-17T17:41:10.204Z,35.50
2022-12-17T17:43:36.728Z,36.58
2022-12-17T17:46:08.721Z,34.58
2022-12-17T17:48:36.002Z,37.47
2022-12-17T17:51:08.796Z,38.65
2022-12-17T17:53:35.842Z,34.88
2022-12-17T17:56:07.554Z,37.35
2022-12-17T17:58:34.727Z,37.50
2022-12-17T18:01:08.462Z,36.17
2022-12-17T18:03:35.452Z,37.03
2022-12-17T18:06:03.279Z,35.75
2022-12-17T18:08:34.438Z,35.65
2022-12-17T18:11:02.438Z,34.28
2022-12-17T18:13:48.238Z,33.92
2022-12-17T18:16:15.220Z,36.30
2022-12-17T18:18:41.824Z,36.28
2022-12-17T18:21:13.401Z,36.30
2022-12-17T18:23:40.395Z,37.30
2022-12-17T18:26:20.652Z,34.08
2022-12-17T18:28:47.835Z,35.67
2022-12-17T18:31:18.143Z,39.03
2022-12-17T18:33:48.302Z,40.25
2022-12-17T18:36:18.989Z,35.53
2022-12-17T18:38:45.831Z,38.00
2022-12-17T18:41:36.138Z,37.70
2022-12-17T18:44:05.233Z,37.92
2022-12-17T18:46:33.222Z,40.33
2022-12-17T18:49:02.104Z,57.00
2022-12-17T18:51:32.035Z,45.90
2022-12-17T18:54:00.125Z,41.53
2022-12-17T18:56:59.453Z,40.38
2022-12-17T18:59:16.747Z,37.53
2022-12-17T19:01:43.751Z,39.88
2022-12-17T19:04:12.641Z,40.85
2022-12-17T19:06:39.814Z,40.97
2022-12-17T19:09:07.556Z,40.10
2022-12-17T19:11:40.414Z,38.38
2022-12-17T19:14:09.973Z,39.95
2022-12-17T19:16:36.660Z,38.15
2022-12-17T19:19:04.589Z,39.33
2022-12-17T19:21:33.624Z,37.25
2022-12-17T19:24:03.373Z,36.92
2022-12-17T19:26:30.432Z,38.92
2022-12-17T19:28:58.161Z,31.63
2022-12-17T19:31:28.136Z,37.28
2022-12-17T19:33:59.234Z,37.72
2022-12-17T19:36:28.610Z,38.03
2022-12-17T19:38:57.719Z,36.47
2022-12-17T19:41:25.179Z,37.00
2022-12-17T19:44:00.375Z,38.80
2022-12-17T19:46:27.076Z,38.03
2022-12-17T19:48:54.320Z,38.35
2022-12-17T19:51:26.146Z,38.78
2022-12-17T19:53:52.695Z,37.63
2022-12-17T19:56:23.310Z,38.58
2022-12-17T19:58:52.554Z,35.80
2022-12-17T20:01:28.139Z,37.60
2022-12-17T20:03:55.192Z,37.53
2022-12-17T20:06:24.297Z,37.90
2022-12-17T20:08:51.165Z,34.58
2022-12-17T20:11:33.267Z,35.20
2022-12-17T20:14:16.182Z,36.67
2022-12-17T20:16:57.458Z,36.42
2022-12-17T20:19:26.012Z,38.47
2022-12-17T20:21:53.458Z,39.03
2022-12-17T20:24:23.544Z,38.25
2022-12-17T20:26:54.703Z,36.83
2022-12-17T20:29:22.635Z,35.38
2022-12-17T20:31:50.232Z,34.08
2022-12-17T20:34:18.010Z,34.00
2022-12-17T20:36:47.530Z,34.80
2022-12-17T20:39:14.230Z,32.97
2022-12-17T20:41:41.764Z,35.08
2022-12-17T20:44:11.510Z,35.15
2022-12-17T20:46:38.302Z,34.85
2022-12-17T20:49:05.559Z,31.08
2022-12-17T20:51:32.296Z,30.95
2022-12-17T20:54:00.135Z,31.23
2022-12-17T20:56:32.149Z,32.90
2022-12-17T20:59:04.601Z,30.42
2022-12-17T21:01:34.144Z,32.95
2022-12-17T21:04:01.621Z,32.05
2022-12-17T21:06:57.597Z,31.08
2022-12-17T21:09:25.447Z,29.05
2022-12-17T21:11:52.410Z,29.33
2022-12-17T21:14:19.563Z,31.25
2022-12-17T21:16:46.397Z,30.45
2022-12-17T21:19:20.207Z,32.03
2022-12-17T21:21:47.196Z,30.20
2022-12-17T21:24:13.859Z,29.63
2022-12-17T21:26:43.414Z,30.35
2022-12-17T21:29:10.664Z,29.15
2022-12-17T21:31:40.480Z,29.48
2022-12-17T21:34:11.470Z,29.63
2022-12-17T21:36:38.156Z,29.80
2022-12-17T21:39:09.008Z,31.88
2022-12-17T21:41:37.947Z,30.45
2022-12-17T21:44:07.243Z,31.98
2022-12-17T21:46:34.405Z,31.08
2022-12-17T21:49:02.330Z,29.55
2022-12-17T21:51:29.742Z,27.73
2022-12-17T21:53:58.744Z,29.55
2022-12-17T21:56:26.169Z,27.98
2022-12-17T21:59:01.079Z,28.25
2022-12-17T22:01:31.892Z,29.75
2022-12-17T22:04:00.319Z,29.10
2022-12-17T22:06:32.792Z,29.48
2022-12-17T22:09:11.187Z,29.77
2022-12-17T22:11:48.887Z,30.45
2022-12-17T22:14:20.904Z,29.25
2022-12-17T22:16:49.355Z,30.45
2022-12-17T22:19:23.005Z,30.80
2022-12-17T22:21:50.792Z,31.67
2022-12-17T22:24:19.795Z,30.27
2022-12-17T22:26:46.777Z,30.38
2022-12-17T22:29:33.383Z,30.00
2022-12-17T22:32:18.494Z,28.92
2022-12-17T22:36:30.764Z,30.50
2022-12-17T22:39:43.392Z,29.70
2022-12-17T22:44:28.681Z,28.55
2022-12-17T22:44:43.341Z,28.52
2022-12-17T22:46:15.270Z,27.38
2022-12-17T22:48:41.879Z,27.77
2022-12-17T22:51:11.977Z,29.45
2022-12-17T22:53:49.289Z,27.85
2022-12-17T22:56:24.523Z,28.33
2022-12-17T22:59:03.544Z,27.85
2022-12-17T23:01:30.408Z,27.75
2022-12-17T23:03:58.346Z,27.30
2022-12-17T23:06:25.998Z,29.63
2022-12-17T23:08:52.642Z,29.10
2022-12-17T23:11:24.290Z,30.98
2022-12-17T23:13:51.287Z,29.73
2022-12-17T23:16:18.205Z,31.08
2022-12-17T23:18:45.887Z,30.92
2022-12-17T23:21:17.096Z,31.58
2022-12-17T23:23:44.000Z,32.50
2022-12-17T23:26:13.481Z,33.58
2022-12-17T23:28:41.245Z,33.20
2022-12-17T23:31:17.620Z,32.88
2022-12-17T23:33:44.987Z,32.65
2022-12-17T23:36:14.280Z,33.58
2022-12-17T23:38:41.621Z,32.60
2022-12-17T23:41:11.230Z,32.72
2022-12-17T23:43:38.315Z,34.42
2022-12-17T23:46:05.962Z,34.50
2022-12-17T23:48:40.762Z,32.65
2022-12-17T23:51:13.350Z,32.63
2022-12-17T23:53:40.492Z,35.28
2022-12-17T23:56:18.587Z,34.35
2022-12-17T23:58:46.523Z,34.40
